createdAt,value
2023-05-09T00:01:22.203Z,93408.25
2023-05-09T00:04:26.582Z,93409.59
2023-05-09T00:07:29.891Z,93411.44
2023-05-09T00:10:33.079Z,93406.84
2023-05-09T00:13:36.496Z,93412.78
2023-05-09T00:16:40.196Z,93413.91
2023-05-09T00:19:44.253Z,93414.28
2023-05-09T00:22:47.439Z,93417.50
2023-05-09T00:25:50.637Z,93418.69
2023-05-09T00:28:53.991Z,93425.34
2023-05-09T00:31:57.504Z,93416.00
2023-05-09T00:35:00.917Z,93424.59
2023-05-09T00:38:04.215Z,93422.47
2023-05-09T00:41:07.825Z,93431.78
2023-05-09T00:44:11.709Z,93423.59
2023-05-09T00:47:14.897Z,93424.47
2023-05-09T00:50:18.716Z,93416.44
2023-05-09T00:53:22.240Z,93414.50
2023-05-09T00:56:25.567Z,93415.69
2023-05-09T00:59:29.175Z,93403.50
2023-05-09T01:02:33.198Z,93406.47
2023-05-09T01:05:56.213Z,93407.09
2023-05-09T01:09:20.522Z,93394.31
2023-05-09T01:12:31.391Z,93392.81
2023-05-09T01:15:40.313Z,93391.72
2023-05-09T01:18:52.593Z,93381.88
2023-05-09T01:21:57.859Z,93388.06
2023-05-09T01:25:21.615Z,93379.38
2023-05-09T01:28:30.501Z,93384.34
2023-05-09T01:31:36.560Z,93380.97
2023-05-09T01:34:42.056Z,93378.13
2023-05-09T01:37:51.228Z,93370.41
2023-05-09T01:40:57.621Z,93372.00
2023-05-09T01:44:03.895Z,93376.81
2023-05-09T01:47:08.480Z,93374.97
2023-05-09T01:50:13.476Z,93375.88
2023-05-09T01:53:18.716Z,93371.69
2023-05-09T01:56:23.292Z,93368.03
2023-05-09T01:59:27.001Z,93367.13
2023-05-09T02:02:30.514Z,93363.47
2023-05-09T02:05:35.745Z,93368.19
2023-05-09T02:08:39.711Z,93371.56
2023-05-09T02:11:43.002Z,93358.03
2023-05-09T02:14:46.531Z,93363.09
2023-05-09T02:17:49.956Z,93365.03
2023-05-09T02:20:53.349Z,93353.25
2023-05-09T02:23:56.538Z,93346.88
2023-05-09T02:27:00.655Z,93353.97
2023-05-09T02:30:08.151Z,93352.91
2023-05-09T02:33:13.652Z,93350.41
2023-05-09T02:36:19.806Z,93351.88
2023-05-09T02:39:23.567Z,93344.53
2023-05-09T02:42:29.818Z,93344.41
2023-05-09T02:45:33.285Z,93337.56
2023-05-09T02:48:37.129Z,93324.41
2023-05-09T02:51:40.329Z,93328.88
2023-05-09T02:54:43.628Z,93323.31
2023-05-09T02:57:46.912Z,93324.63
2023-05-09T03:00:50.174Z,93318.28
2023-05-09T03:03:53.422Z,93317.94
2023-05-09T03:06:57.704Z,93313.78
2023-05-09T03:10:06.850Z,93308.94
2023-05-09T03:13:10.744Z,93308.31
2023-05-09T03:16:16.380Z,93305.72
2023-05-09T03:19:21.049Z,93294.50
2023-05-09T03:22:24.262Z,93295.59
2023-05-09T03:25:33.138Z,93289.75
2023-05-09T03:28:36.367Z,93288.16
2023-05-09T03:31:41.506Z,93277.41
2023-05-09T03:34:44.829Z,93279.69
2023-05-09T03:37:48.220Z,93278.41
2023-05-09T03:40:52.167Z,93272.22
2023-05-09T03:43:55.613Z,93268.09
2023-05-09T03:46:58.887Z,93268.41
2023-05-09T03:50:03.295Z,93260.38
2023-05-09T03:53:07.217Z,93254.50
2023-05-09T03:56:11.990Z,93250.97
2023-05-09T03:59:22.085Z,93247.19
2023-05-09T04:02:25.440Z,93234.78
2023-05-09T04:05:28.924Z,93234.59
2023-05-09T04:08:33.291Z,93226.94
2023-05-09T04:11:38.514Z,93221.88
2023-05-09T04:14:48.909Z,93214.94
2023-05-09T04:17:53.291Z,93220.91
2023-05-09T04:21:00.339Z,93215.63
2023-05-09T04:24:03.778Z,93211.16
2023-05-09T04:27:12.962Z,93206.47
2023-05-09T04:30:17.518Z,93208.53
2023-05-09T04:33:22.059Z,93201.66
2023-05-09T04:36:28.329Z,93198.50
2023-05-09T04:39:34.094Z,93189.69
2023-05-09T04:42:46.481Z,93184.59
2023-05-09T04:45:50.142Z,93187.19
2023-05-09T04:48:53.297Z,93180.50
2023-05-09T04:51:56.868Z,93172.59
2023-05-09T04:55:00.811Z,93177.84
2023-05-09T04:58:10.303Z,93177.31
2023-05-09T05:01:13.763Z,93166.09
2023-05-09T05:04:17.220Z,93159.59
2023-05-09T05:07:20.751Z,93159.44
2023-05-09T05:10:24.068Z,93155.69
2023-05-09T05:13:34.775Z,93157.41
2023-05-09T05:16:38.856Z,93148.13
2023-05-09T05:19:42.242Z,93143.13
2023-05-09T05:22:45.805Z,93140.75
2023-05-09T05:25:49.720Z,93129.19
2023-05-09T05:28:56.166Z,93133.47
2023-05-09T05:32:00.937Z,93121.81
2023-05-09T05:35:05.611Z,93121.47
2023-05-09T05:38:12.014Z,93119.47
2023-05-09T05:41:16.349Z,93110.50
2023-05-09T05:44:20.811Z,93109.47
2023-05-09T05:47:24.152Z,93102.25
2023-05-09T05:50:28.239Z,93103.81
2023-05-09T05:53:32.786Z,93091.75
2023-05-09T05:56:36.928Z,93094.84
2023-05-09T05:59:40.531Z,93088.72
2023-05-09T06:02:45.794Z,93090.06
2023-05-09T06:05:57.141Z,93087.09
2023-05-09T06:09:00.400Z,93074.66
2023-05-09T06:12:03.690Z,93078.31
2023-05-09T06:15:07.665Z,93070.75
2023-05-09T06:18:14.845Z,93071.56
2023-05-09T06:21:18.142Z,93067.44
2023-05-09T06:24:34.658Z,93060.63
2023-05-09T06:27:39.882Z,93063.06
2023-05-09T06:30:43.115Z,93066.44
2023-05-09T06:33:46.332Z,93048.13
2023-05-09T06:36:49.537Z,93039.50
2023-05-09T06:39:52.706Z,93035.22
2023-05-09T06:42:55.853Z,93036.28
2023-05-09T06:45:59.052Z,93031.69
2023-05-09T06:49:06.779Z,93030.75
2023-05-09T06:52:10.231Z,93023.69
2023-05-09T06:55:13.618Z,93019.00
2023-05-09T06:58:17.161Z,93018.91
2023-05-09T07:01:20.475Z,93015.13
2023-05-09T07:04:23.676Z,93014.97
2023-05-09T07:07:26.898Z,93017.66
2023-05-09T07:10:30.086Z,93003.28
2023-05-09T07:13:33.297Z,93012.06
2023-05-09T07:16:37.617Z,93000.06
2023-05-09T07:19:42.016Z,92986.63
2023-05-09T07:22:45.401Z,92979.63
2023-05-09T07:25:48.786Z,92986.56
2023-05-09T07:28:52.022Z,92976.84
2023-05-09T07:31:55.311Z,92977.72
2023-05-09T07:34:58.880Z,92976.28
2023-05-09T07:38:02.155Z,92964.94
2023-05-09T07:41:05.680Z,92964.06
2023-05-09T07:44:10.249Z,92962.31
2023-05-09T07:47:13.220Z,92958.84
2023-05-09T07:50:17.769Z,92948.50
2023-05-09T07:53:21.740Z,92948.81
2023-05-09T07:56:24.917Z,92945.28
2023-05-09T07:59:28.204Z,92935.88
2023-05-09T08:02:31.815Z,92935.16
2023-05-09T08:05:35.131Z,92941.81
2023-05-09T08:08:39.057Z,92940.03
2023-05-09T08:11:42.458Z,92934.56
2023-05-09T08:14:45.715Z,92934.81
2023-05-09T08:17:48.965Z,92931.22
2023-05-09T08:20:52.320Z,92933.16
2023-05-09T08:23:56.509Z,92925.66
2023-05-09T08:26:59.639Z,92921.81
2023-05-09T08:30:02.914Z,92916.56
2023-05-09T08:33:06.142Z,92923.94
2023-05-09T08:36:09.848Z,92918.56
2023-05-09T08:39:13.052Z,92908.28
2023-05-09T08:42:20.664Z,92914.63
2023-05-09T08:45:30.364Z,92910.41
2023-05-09T08:48:38.729Z,92908.63
2023-05-09T08:51:42.124Z,92902.03
2023-05-09T08:54:45.600Z,92909.00
2023-05-09T08:57:49.391Z,92907.47
2023-05-09T09:00:53.569Z,92909.53
2023-05-09T09:03:57.275Z,92906.25
2023-05-09T09:07:01.393Z,92895.75
2023-05-09T09:10:05.427Z,92901.09
2023-05-09T09:13:11.036Z,92897.03
2023-05-09T09:16:23.140Z,92889.16
2023-05-09T09:19:31.951Z,92891.66
2023-05-09T09:22:36.429Z,92885.50
2023-05-09T09:25:39.661Z,92883.84
2023-05-09T09:28:43.580Z,92877.72
2023-05-09T09:31:48.255Z,92876.56
2023-05-09T09:34:51.607Z,92879.50
2023-05-09T09:38:02.243Z,92874.13
2023-05-09T09:41:05.320Z,92875.88
2023-05-09T09:44:20.235Z,92873.75
2023-05-09T09:47:32.852Z,92872.06
2023-05-09T09:50:36.006Z,92870.09
2023-05-09T09:53:44.119Z,92864.22
2023-05-09T09:56:53.976Z,92862.03
2023-05-09T10:00:00.570Z,92860.34
2023-05-09T10:03:04.154Z,92864.88
2023-05-09T10:06:11.996Z,92861.69
2023-05-09T10:09:15.135Z,92858.09
2023-05-09T10:12:20.765Z,92858.44
2023-05-09T10:15:24.634Z,92863.47
2023-05-09T10:18:32.275Z,92869.78
2023-05-09T10:21:37.953Z,92865.66
2023-05-09T10:24:57.895Z,92857.34
2023-05-09T10:28:02.598Z,92865.19
2023-05-09T10:31:11.541Z,92867.44
2023-05-09T10:34:16.071Z,92860.19
2023-05-09T10:37:19.063Z,92866.16
2023-05-09T10:40:25.343Z,92867.03
2023-05-09T10:43:29.483Z,92866.97
2023-05-09T10:46:33.121Z,92870.16
2023-05-09T10:49:37.289Z,92868.13
2023-05-09T10:53:05.705Z,92867.94
2023-05-09T10:56:09.058Z,92872.16
2023-05-09T10:59:41.957Z,92862.78
2023-05-09T11:03:11.009Z,92867.75
2023-05-09T11:06:52.225Z,92867.25
2023-05-09T11:10:15.315Z,92863.38
2023-05-09T11:13:25.209Z,92869.94
2023-05-09T11:16:28.870Z,92869.53
2023-05-09T11:20:02.306Z,92867.41
2023-05-09T11:23:06.720Z,92870.28
2023-05-09T11:26:10.281Z,92873.78
2023-05-09T11:29:13.673Z,92875.88
2023-05-09T11:32:17.070Z,92867.44
2023-05-09T11:35:22.637Z,92865.50
2023-05-09T11:38:26.308Z,92875.34
2023-05-09T11:41:30.680Z,92871.91
2023-05-09T11:44:36.167Z,92870.50
2023-05-09T11:47:40.177Z,92872.53
2023-05-09T11:50:43.879Z,92877.00
2023-05-09T11:53:51.408Z,92880.75
2023-05-09T11:56:54.651Z,92870.63
2023-05-09T12:00:00.943Z,92882.13
2023-05-09T12:03:06.620Z,92880.28
2023-05-09T12:06:10.341Z,92881.78
2023-05-09T12:09:14.642Z,92883.31
2023-05-09T12:12:21.503Z,92888.28
2023-05-09T12:15:25.159Z,92895.19
2023-05-09T12:18:28.496Z,92895.56
2023-05-09T12:21:32.133Z,92901.22
2023-05-09T12:24:37.612Z,92895.44
2023-05-09T12:27:41.985Z,92892.16
2023-05-09T12:30:45.903Z,92903.06
2023-05-09T12:33:49.430Z,92904.69
2023-05-09T12:36:52.852Z,92903.84
2023-05-09T12:40:16.099Z,92907.56
2023-05-09T12:43:19.494Z,92901.31
2023-05-09T12:46:23.317Z,92907.47
2023-05-09T12:49:27.596Z,92911.53
2023-05-09T12:52:50.702Z,92903.03
2023-05-09T12:56:06.537Z,92915.13
2023-05-09T12:59:12.275Z,92923.19
2023-05-09T13:02:15.655Z,92922.81
2023-05-09T13:05:23.504Z,92926.28
2023-05-09T13:08:27.293Z,92927.94
2023-05-09T13:11:31.321Z,92925.34
2023-05-09T13:14:34.742Z,92925.97
2023-05-09T13:17:38.519Z,92926.81
2023-05-09T13:20:41.787Z,92934.19
2023-05-09T13:23:46.309Z,92932.31
2023-05-09T13:26:50.224Z,92925.91
2023-05-09T13:29:53.635Z,92932.63
2023-05-09T13:32:57.011Z,92932.81
2023-05-09T13:36:00.320Z,92930.88
2023-05-09T13:39:03.941Z,92931.91
2023-05-09T13:42:07.262Z,92938.22
2023-05-09T13:45:10.926Z,92943.72
2023-05-09T13:48:14.281Z,92942.78
2023-05-09T13:51:17.874Z,92943.03
2023-05-09T13:54:22.613Z,92941.22
2023-05-09T13:57:25.820Z,92950.06
2023-05-09T14:00:29.596Z,92934.38
2023-05-09T14:03:32.903Z,92945.09
2023-05-09T14:06:36.418Z,92938.63
2023-05-09T14:09:40.788Z,92941.34
2023-05-09T14:12:48.012Z,92938.81
2023-05-09T14:15:51.297Z,92940.38
2023-05-09T14:18:54.574Z,92946.78
2023-05-09T14:21:57.957Z,92942.50
2023-05-09T14:25:01.694Z,92939.91
2023-05-09T14:28:05.170Z,92938.63
2023-05-09T14:31:08.398Z,92940.00
2023-05-09T14:34:12.140Z,92940.91
2023-05-09T14:37:15.454Z,92942.69
2023-05-09T14:40:18.886Z,92940.53
2023-05-09T14:43:22.929Z,92942.09
2023-05-09T14:46:26.453Z,92933.63
2023-05-09T14:49:29.751Z,92938.91
2023-05-09T14:52:33.065Z,92942.88
2023-05-09T14:55:37.017Z,92943.50
2023-05-09T14:58:40.420Z,92938.91
2023-05-09T15:01:43.602Z,92946.19
2023-05-09T15:04:46.916Z,92940.91
2023-05-09T15:07:50.259Z,92942.88
2023-05-09T15:10:53.866Z,92943.06
2023-05-09T15:13:57.341Z,92938.03
2023-05-09T15:17:03.781Z,92939.00
2023-05-09T15:20:08.197Z,92935.38
2023-05-09T15:23:13.749Z,92941.50
2023-05-09T15:26:17.723Z,92935.22
2023-05-09T15:29:22.529Z,92940.63
2023-05-09T15:32:25.618Z,92940.59
2023-05-09T15:35:28.994Z,92943.50
2023-05-09T15:38:32.278Z,92939.81
2023-05-09T15:41:35.492Z,92935.97
2023-05-09T15:44:42.146Z,92941.75
2023-05-09T15:47:45.426Z,92947.34
2023-05-09T15:50:49.188Z,92943.91
2023-05-09T15:53:52.737Z,92942.06
2023-05-09T15:56:56.620Z,92944.97
2023-05-09T15:59:59.817Z,92939.81
2023-05-09T16:03:03.109Z,92940.91
2023-05-09T16:06:07.074Z,92941.00
2023-05-09T16:09:10.525Z,92949.09
2023-05-09T16:12:14.469Z,92949.50
2023-05-09T16:15:17.605Z,92948.75
2023-05-09T16:18:20.829Z,92956.16
2023-05-09T16:21:26.964Z,92936.50
2023-05-09T16:24:32.302Z,92945.38
2023-05-09T16:27:35.554Z,92947.94
2023-05-09T16:30:38.890Z,92947.75
2023-05-09T16:33:42.182Z,92951.47
2023-05-09T16:36:47.058Z,92961.63
2023-05-09T16:39:50.566Z,92959.75
2023-05-09T16:42:54.527Z,92954.28
2023-05-09T16:45:58.355Z,92949.63
2023-05-09T16:49:01.633Z,92944.78
2023-05-09T16:52:05.040Z,92939.16
2023-05-09T16:55:08.902Z,92947.69
2023-05-09T16:58:12.327Z,92942.41
2023-05-09T17:01:16.444Z,92944.31
2023-05-09T17:04:19.717Z,92937.09
2023-05-09T17:07:23.060Z,92940.41
2023-05-09T17:10:26.416Z,92937.69
2023-05-09T17:13:29.838Z,92930.34
2023-05-09T17:16:33.862Z,92923.72
2023-05-09T17:19:38.818Z,92920.44
2023-05-09T17:22:42.056Z,92915.91
2023-05-09T17:25:46.232Z,92917.31
2023-05-09T17:28:50.428Z,92922.66
2023-05-09T17:31:53.778Z,92918.84
2023-05-09T17:34:57.044Z,92920.31
2023-05-09T17:38:00.234Z,92917.84
2023-05-09T17:41:03.532Z,92923.19
2023-05-09T17:44:06.688Z,92918.03
2023-05-09T17:47:10.148Z,92908.34
2023-05-09T17:50:17.870Z,92907.91
2023-05-09T17:53:21.274Z,92910.59
2023-05-09T17:56:24.718Z,92906.66
2023-05-09T17:59:28.647Z,92909.22
2023-05-09T18:02:31.866Z,92911.19
2023-05-09T18:05:35.374Z,92909.28
2023-05-09T18:08:38.683Z,92909.97
2023-05-09T18:11:42.117Z,92906.13
2023-05-09T18:14:45.424Z,92912.72
2023-05-09T18:17:50.148Z,92900.31
2023-05-09T18:20:53.313Z,92902.31
2023-05-09T18:23:56.564Z,92893.19
2023-05-09T18:26:59.837Z,92899.13
2023-05-09T18:30:03.090Z,92894.59
2023-05-09T18:33:06.455Z,92880.91
2023-05-09T18:36:11.647Z,92880.22
2023-05-09T18:39:15.775Z,92884.81
2023-05-09T18:42:18.939Z,92884.81
2023-05-09T18:45:22.214Z,92889.44
2023-05-09T18:48:26.325Z,92892.72
2023-05-09T18:51:30.464Z,92886.84
2023-05-09T18:54:33.673Z,92892.09
2023-05-09T18:57:36.913Z,92884.94
2023-05-09T19:00:40.784Z,92894.09
2023-05-09T19:03:46.706Z,92894.13
2023-05-09T19:06:50.109Z,92897.34
2023-05-09T19:09:53.431Z,92890.84
2023-05-09T19:12:57.329Z,92886.94
2023-05-09T19:16:00.596Z,92883.03
2023-05-09T19:19:03.732Z,92885.63
2023-05-09T19:22:07.396Z,92879.78
2023-05-09T19:25:10.799Z,92874.56
2023-05-09T19:28:15.242Z,92874.56
2023-05-09T19:31:19.502Z,92877.16
2023-05-09T19:34:23.544Z,92868.03
2023-05-09T19:37:26.742Z,92868.66
2023-05-09T19:40:30.871Z,92874.56
2023-05-09T19:43:34.001Z,92879.13
2023-05-09T19:46:38.712Z,92876.50
2023-05-09T19:49:43.580Z,92883.06
2023-05-09T19:52:46.773Z,92881.09
2023-05-09T19:55:49.887Z,92873.91
2023-05-09T19:58:53.103Z,92870.63
2023-05-09T20:01:56.270Z,92867.34
2023-05-09T20:04:59.676Z,92868.66
2023-05-09T20:08:03.075Z,92866.72
2023-05-09T20:11:06.348Z,92867.38
2023-05-09T20:14:09.659Z,92864.75
2023-05-09T20:17:12.768Z,92865.41
2023-05-09T20:20:16.156Z,92871.28
2023-05-09T20:23:19.486Z,92871.28
2023-05-09T20:26:25.013Z,92874.56
2023-05-09T20:29:28.425Z,92872.59
2023-05-09T20:32:33.836Z,92877.13
2023-05-09T20:35:37.076Z,92876.47
2023-05-09T20:38:40.244Z,92869.91
2023-05-09T20:41:43.414Z,92876.25
2023-05-09T20:44:48.203Z,92878.75
2023-05-09T20:47:51.395Z,92875.44
2023-05-09T20:50:54.568Z,92879.34
2023-05-09T20:53:58.003Z,92876.09
2023-05-09T20:57:01.165Z,92865.00
2023-05-09T21:00:04.651Z,92872.19
2023-05-09T21:03:09.727Z,92867.69
2023-05-09T21:06:13.136Z,92873.63
2023-05-09T21:09:16.352Z,92866.56
2023-05-09T21:12:19.448Z,92875.75
2023-05-09T21:15:22.562Z,92881.63
2023-05-09T21:18:26.035Z,92877.06
2023-05-09T21:21:33.759Z,92879.00
2023-05-09T21:24:36.968Z,92882.94
2023-05-09T21:27:40.196Z,92877.03
2023-05-09T21:30:43.454Z,92874.41
2023-05-09T21:33:46.591Z,92869.84
2023-05-09T21:36:49.853Z,92867.88
2023-05-09T21:39:53.049Z,92868.53
2023-05-09T21:42:56.226Z,92866.63
2023-05-09T21:45:59.824Z,92866.03
2023-05-09T21:49:03.042Z,92864.75
2023-05-09T21:52:06.251Z,92854.31
2023-05-09T21:55:09.899Z,92852.34
2023-05-09T21:58:13.027Z,92863.84
2023-05-09T22:01:17.339Z,92857.41
2023-05-09T22:04:20.529Z,92869.81
2023-05-09T22:07:23.772Z,92862.75
2023-05-09T22:10:27.128Z,92873.22
2023-05-09T22:13:30.432Z,92870.09
2023-05-09T22:16:33.775Z,92872.81
2023-05-09T22:19:37.285Z,92879.56
2023-05-09T22:22:40.507Z,92875.56
2023-05-09T22:25:43.731Z,92870.19
2023-05-09T22:28:46.946Z,92882.47
2023-05-09T22:31:50.212Z,92877.03
2023-05-09T22:34:54.804Z,92871.06
2023-05-09T22:37:57.957Z,92871.47
2023-05-09T22:41:01.255Z,92870.16
2023-05-09T22:44:04.550Z,92862.72
2023-05-09T22:47:11.156Z,92872.41
2023-05-09T22:50:14.626Z,92881.59
2023-05-09T22:53:18.852Z,92866.94
2023-05-09T22:56:22.877Z,92878.63
2023-05-09T22:59:26.056Z,92880.75
2023-05-09T23:02:29.613Z,92881.69
2023-05-09T23:05:32.751Z,92884.78
2023-05-09T23:08:36.147Z,92881.91
2023-05-09T23:11:39.341Z,92890.34
2023-05-09T23:14:42.843Z,92880.00
2023-05-09T23:17:46.160Z,92878.72
2023-05-09T23:20:49.271Z,92878.91
2023-05-09T23:23:52.443Z,92880.31
2023-05-09T23:26:55.647Z,92874.66
2023-05-09T23:29:59.219Z,92877.53
2023-05-09T23:33:02.712Z,92871.38
2023-05-09T23:36:06.297Z,92873.38
2023-05-09T23:39:09.922Z,92864.88
2023-05-09T23:42:13.212Z,92863.94
2023-05-09T23:45:16.486Z,92860.91
2023-05-09T23:48:19.766Z,92852.00
2023-05-09T23:51:23.293Z,92851.25
2023-05-09T23:54:27.577Z,92855.53
2023-05-09T23:57:30.717Z,92855.53
